Time;durP1;ratioP1;P1;durP2;ratioP2;P2;SDS_P1;SDS_P2;PMS_P1;PMS_P2;Temp;Humidity;BMP_temperature;BMP_pressure;BME280_temperature;BME280_humidity;BME280_pressure;Samples;Min_cycle;Max_cycle;Signal;HPM_P1;HPM_P2
2022/01/11 00:02:05;;;;;;;30.50;14.48;;;;;;;;;;5072961;28;20523;-70
2022/01/11 00:04:31;;;;;;;27.52;14.93;;;;;;;;;;5073452;28;20043;-70
2022/01/11 00:06:59;;;;;;;37.42;14.40;;;;;;;;;;5090214;28;20093;-70
2022/01/11 00:11:57;;;;;;;36.78;14.95;;;;;;;;;;5107349;28;20619;-69
2022/01/11 00:14:23;;;;;;;33.03;14.80;;;;;;;;;;5107481;28;20044;-69
2022/01/11 00:16:50;;;;;;;26.63;13.35;;;;;;;;;;5073088;28;20514;-69
2022/01/11 00:19:16;;;;;;;29.35;14.07;;;;;;;;;;5074325;28;20045;-69
2022/01/11 00:21:47;;;;;;;40.03;14.68;;;;;;;;;;5107374;28;20036;-69
2022/01/11 00:24:33;;;;;;;36.17;14.70;;;;;;;;;;5074135;28;20186;-69
2022/01/11 00:27:01;;;;;;;31.60;13.77;;;;;;;;;;5057401;28;20132;-69
2022/01/11 00:29:28;;;;;;;24.77;14.35;;;;;;;;;;5052956;28;20064;-69
2022/01/11 00:31:57;;;;;;;30.02;14.32;;;;;;;;;;5052536;28;20423;-69
2022/01/11 00:34:25;;;;;;;31.52;14.20;;;;;;;;;;5054581;28;20139;-69
2022/01/11 00:36:51;;;;;;;30.00;15.32;;;;;;;;;;5053245;28;20052;-69
2022/01/11 00:39:17;;;;;;;28.40;14.77;;;;;;;;;;5053651;28;20061;-69
2022/01/11 00:41:44;;;;;;;30.60;14.88;;;;;;;;;;5069486;28;20052;-69
2022/01/11 00:44:11;;;;;;;33.30;15.88;;;;;;;;;;5052687;28;20079;-69
2022/01/11 00:46:40;;;;;;;26.65;14.18;;;;;;;;;;5051312;28;20395;-69
2022/01/11 00:49:06;;;;;;;56.75;16.70;;;;;;;;;;5054163;28;20041;-69
2022/01/11 00:51:32;;;;;;;46.00;16.88;;;;;;;;;;5052722;28;20041;-69
2022/01/11 00:53:58;;;;;;;37.05;16.17;;;;;;;;;;5051938;28;20049;-69
2022/01/11 00:56:24;;;;;;;30.67;15.20;;;;;;;;;;5052581;28;20157;-69
2022/01/11 00:58:50;;;;;;;33.45;16.27;;;;;;;;;;5052590;28;20043;-69
2022/01/11 01:01:16;;;;;;;30.30;15.63;;;;;;;;;;5053381;28;20051;-69
2022/01/11 01:03:43;;;;;;;31.15;15.30;;;;;;;;;;5052455;28;20079;-69
2022/01/11 01:06:09;;;;;;;26.98;14.80;;;;;;;;;;5068989;28;20128;-69
2022/01/11 01:08:35;;;;;;;28.70;15.32;;;;;;;;;;5051634;28;20049;-69
2022/01/11 01:11:01;;;;;;;28.38;14.77;;;;;;;;;;5052504;28;20037;-69
2022/01/11 01:13:28;;;;;;;32.45;15.38;;;;;;;;;;5052254;28;20431;-69
2022/01/11 01:15:55;;;;;;;35.35;16.23;;;;;;;;;;5053124;28;20040;-69
2022/01/11 01:18:23;;;;;;;32.13;15.45;;;;;;;;;;5052128;28;20045;-69
2022/01/11 01:20:53;;;;;;;27.75;16.33;;;;;;;;;;5053293;28;20044;-69
2022/01/11 01:23:20;;;;;;;25.98;14.52;;;;;;;;;;5051673;28;20079;-69
2022/01/11 01:25:46;;;;;;;31.77;16.42;;;;;;;;;;5057183;28;20132;-69
2022/01/11 01:28:13;;;;;;;31.45;17.30;;;;;;;;;;5072085;28;20041;-69
2022/01/11 01:30:39;;;;;;;33.75;15.52;;;;;;;;;;5071224;28;20043;-69
2022/01/11 01:33:06;;;;;;;28.92;16.15;;;;;;;;;;5073226;28;20119;-69
2022/01/11 01:35:39;;;;;;;28.90;15.25;;;;;;;;;;5073482;28;20448;-70
2022/01/11 01:38:05;;;;;;;29.73;16.65;;;;;;;;;;5072775;28;20045;-70
2022/01/11 01:40:37;;;;;;;38.65;17.13;;;;;;;;;;5071860;28;20074;-70
2022/01/11 01:43:05;;;;;;;37.78;15.88;;;;;;;;;;5071664;28;20063;-70
2022/01/11 01:45:31;;;;;;;35.67;16.92;;;;;;;;;;5072325;28;20048;-70
2022/01/11 01:47:58;;;;;;;30.38;16.00;;;;;;;;;;5071773;28;20518;-70
2022/01/11 01:50:26;;;;;;;32.95;17.05;;;;;;;;;;5073168;28;20055;-70
2022/01/11 01:52:52;;;;;;;30.88;16.08;;;;;;;;;;5072420;28;20040;-70
2022/01/11 01:55:18;;;;;;;38.97;16.20;;;;;;;;;;5071556;28;20127;-70
2022/01/11 01:57:44;;;;;;;37.75;16.75;;;;;;;;;;5071576;28;20051;-70
2022/01/11 02:00:12;;;;;;;49.88;17.00;;;;;;;;;;5104781;28;20483;-70
2022/01/11 02:02:41;;;;;;;40.75;16.35;;;;;;;;;;5072893;28;20159;-70
2022/01/11 02:05:07;;;;;;;26.38;16.08;;;;;;;;;;5072946;28;20040;-70
2022/01/11 02:07:34;;;;;;;27.48;15.85;;;;;;;;;;5070721;28;20403;-70
2022/01/11 02:10:03;;;;;;;49.28;17.85;;;;;;;;;;5071010;28;20051;-70
2022/01/11 02:12:29;;;;;;;35.03;16.80;;;;;;;;;;5071029;28;20132;-69
2022/01/11 02:14:55;;;;;;;46.83;16.98;;;;;;;;;;5071630;28;20032;-69
2022/01/11 02:17:21;;;;;;;36.70;17.55;;;;;;;;;;5070843;28;20047;-69
2022/01/11 02:19:48;;;;;;;35.95;17.42;;;;;;;;;;5071019;28;20055;-69
2022/01/11 02:22:14;;;;;;;41.97;16.15;;;;;;;;;;5070398;28;20033;-69
2022/01/11 02:24:40;;;;;;;44.22;16.23;;;;;;;;;;5072061;28;20530;-69
2022/01/11 02:27:06;;;;;;;32.55;15.88;;;;;;;;;;5070729;28;20076;-69
2022/01/11 02:29:32;;;;;;;28.50;16.30;;;;;;;;;;5070359;28;20467;-69
2022/01/11 02:31:58;;;;;;;30.73;16.02;;;;;;;;;;5070708;28;20055;-69
2022/01/11 02:34:25;;;;;;;35.50;16.40;;;;;;;;;;5070854;28;20543;-69
2022/01/11 02:36:51;;;;;;;41.45;16.58;;;;;;;;;;5070124;28;20394;-69
2022/01/11 02:39:17;;;;;;;33.90;16.58;;;;;;;;;;5070950;28;20525;-69
2022/01/11 02:41:51;;;;;;;44.42;17.63;;;;;;;;;;5070641;28;20068;-69
2022/01/11 02:44:17;;;;;;;44.05;16.95;;;;;;;;;;5071400;28;20580;-69
2022/01/11 02:46:43;;;;;;;35.03;17.23;;;;;;;;;;5070788;28;20182;-69
2022/01/11 02:49:09;;;;;;;38.00;16.33;;;;;;;;;;5070512;28;20047;-69
2022/01/11 02:51:35;;;;;;;32.95;16.73;;;;;;;;;;5069839;28;20504;-69
2022/01/11 02:54:02;;;;;;;38.40;16.65;;;;;;;;;;5070209;28;20415;-69
2022/01/11 02:56:29;;;;;;;43.45;16.75;;;;;;;;;;5071958;28;20094;-69
2022/01/11 02:58:55;;;;;;;37.85;16.73;;;;;;;;;;5069915;28;20079;-69
2022/01/11 03:01:21;;;;;;;37.33;17.27;;;;;;;;;;5070532;28;20124;-69
2022/01/11 03:03:47;;;;;;;39.53;16.42;;;;;;;;;;5071365;28;20045;-69
2022/01/11 03:06:14;;;;;;;37.63;16.55;;;;;;;;;;5069616;28;20413;-69
2022/01/11 03:08:42;;;;;;;35.10;16.02;;;;;;;;;;5069749;28;20131;-69
2022/01/11 03:11:08;;;;;;;53.40;17.23;;;;;;;;;;5070755;28;20080;-69
2022/01/11 03:13:35;;;;;;;37.30;15.23;;;;;;;;;;5069525;28;20447;-69
2022/01/11 03:16:02;;;;;;;37.53;14.55;;;;;;;;;;5071593;28;20048;-69
2022/01/11 03:18:29;;;;;;;38.58;15.18;;;;;;;;;;5070202;28;20040;-69
2022/01/11 03:20:55;;;;;;;28.95;15.20;;;;;;;;;;5069405;28;20044;-69
2022/01/11 03:23:21;;;;;;;39.42;16.40;;;;;;;;;;5070016;28;20044;-69
2022/01/11 03:25:50;;;;;;;36.00;16.23;;;;;;;;;;5069894;28;20410;-69
2022/01/11 03:28:16;;;;;;;40.65;16.55;;;;;;;;;;5069516;28;20043;-69
2022/01/11 03:30:42;;;;;;;39.75;16.23;;;;;;;;;;5071246;28;20045;-69
2022/01/11 03:33:08;;;;;;;35.88;16.08;;;;;;;;;;5069968;28;20044;-69
2022/01/11 03:35:35;;;;;;;34.67;16.30;;;;;;;;;;5069734;28;20627;-69
2022/01/11 03:38:03;;;;;;;48.83;17.52;;;;;;;;;;5069840;28;20738;-69
2022/01/11 03:40:30;;;;;;;36.35;17.27;;;;;;;;;;5070017;28;20040;-69
2022/01/11 03:42:56;;;;;;;35.80;17.40;;;;;;;;;;5069372;28;20045;-69
2022/01/11 03:45:23;;;;;;;37.63;16.65;;;;;;;;;;5069717;28;20051;-69
2022/01/11 03:47:50;;;;;;;31.17;15.77;;;;;;;;;;5071353;28;20436;-69
2022/01/11 03:50:16;;;;;;;37.00;17.13;;;;;;;;;;5069431;28;20475;-69
2022/01/11 03:52:44;;;;;;;34.45;16.77;;;;;;;;;;5069866;28;20404;-69
2022/01/11 03:55:12;;;;;;;41.28;17.05;;;;;;;;;;5069654;28;20093;-69
2022/01/11 03:57:39;;;;;;;36.65;17.00;;;;;;;;;;5069070;28;20055;-69
2022/01/11 04:00:08;;;;;;;37.45;15.90;;;;;;;;;;5070887;28;20049;-70
2022/01/11 04:02:34;;;;;;;35.38;17.48;;;;;;;;;;5069674;28;20036;-70
2022/01/11 04:05:00;;;;;;;38.10;18.38;;;;;;;;;;5069024;28;20123;-70
2022/01/11 04:07:28;;;;;;;36.67;18.17;;;;;;;;;;5069868;28;20376;-70
2022/01/11 04:09:55;;;;;;;39.13;19.30;;;;;;;;;;5069503;28;20051;-70
2022/01/11 04:12:22;;;;;;;38.50;18.88;;;;;;;;;;5070605;28;20064;-70
2022/01/11 04:14:48;;;;;;;39.90;19.50;;;;;;;;;;5069259;28;20040;-70
2022/01/11 04:17:14;;;;;;;41.88;19.83;;;;;;;;;;5069594;28;20052;-70
2022/01/11 04:19:40;;;;;;;45.30;19.67;;;;;;;;;;5069002;28;20535;-70
2022/01/11 04:22:06;;;;;;;48.42;22.25;;;;;;;;;;5073043;28;20048;-70
2022/01/11 04:24:32;;;;;;;41.17;21.58;;;;;;;;;;5074466;28;20090;-70
2022/01/11 04:26:58;;;;;;;45.88;21.48;;;;;;;;;;5072365;28;20543;-70
2022/01/11 04:29:24;;;;;;;41.20;20.10;;;;;;;;;;5073142;28;20495;-70
2022/01/11 04:31:50;;;;;;;42.50;19.38;;;;;;;;;;5073316;28;20494;-70
2022/01/11 04:34:17;;;;;;;45.97;20.10;;;;;;;;;;5072500;28;20134;-70
2022/01/11 04:36:43;;;;;;;43.28;20.20;;;;;;;;;;5074708;28;20376;-70
2022/01/11 04:39:11;;;;;;;38.15;19.25;;;;;;;;;;5074336;28;20049;-70
2022/01/11 04:41:37;;;;;;;46.13;21.35;;;;;;;;;;5072369;28;20044;-70
2022/01/11 04:44:04;;;;;;;43.67;22.20;;;;;;;;;;5072708;28;20040;-70
2022/01/11 04:46:30;;;;;;;51.05;22.05;;;;;;;;;;5073171;28;20060;-70
2022/01/11 04:48:58;;;;;;;49.83;22.27;;;;;;;;;;5072155;28;20095;-69
2022/01/11 04:51:25;;;;;;;46.10;21.10;;;;;;;;;;5073125;28;20131;-70
2022/01/11 04:53:52;;;;;;;50.67;21.75;;;;;;;;;;5072647;28;20093;-70
2022/01/11 04:56:18;;;;;;;52.80;22.40;;;;;;;;;;5073879;28;20494;-70
2022/01/11 04:58:44;;;;;;;42.53;20.58;;;;;;;;;;5072774;28;20045;-70
2022/01/11 05:01:10;;;;;;;44.65;20.83;;;;;;;;;;5072439;28;20094;-70
2022/01/11 05:03:36;;;;;;;45.22;20.48;;;;;;;;;;5072430;28;20044;-69
2022/01/11 05:06:04;;;;;;;48.63;22.77;;;;;;;;;;5071963;28;20480;-69
2022/01/11 05:08:31;;;;;;;49.30;22.42;;;;;;;;;;5072586;28;20545;-69
2022/01/11 05:10:57;;;;;;;48.53;22.23;;;;;;;;;;5073672;28;20040;-69
2022/01/11 05:13:23;;;;;;;49.38;22.33;;;;;;;;;;5071702;28;20581;-69
2022/01/11 05:15:49;;;;;;;48.90;22.75;;;;;;;;;;5072448;28;20126;-69
2022/01/11 05:18:15;;;;;;;43.35;20.75;;;;;;;;;;5072308;28;20040;-69
2022/01/11 05:20:42;;;;;;;48.03;21.05;;;;;;;;;;5071525;28;20054;-69
2022/01/11 05:23:08;;;;;;;45.28;21.48;;;;;;;;;;5072255;28;20036;-69
2022/01/11 05:25:34;;;;;;;43.85;22.20;;;;;;;;;;5072128;28;20490;-69
2022/01/11 05:28:00;;;;;;;45.97;21.90;;;;;;;;;;5105235;28;20049;-69
2022/01/11 05:30:27;;;;;;;45.08;21.25;;;;;;;;;;5073720;28;20032;-69
2022/01/11 05:32:53;;;;;;;45.90;21.00;;;;;;;;;;5071850;28;20053;-69
2022/01/11 05:35:20;;;;;;;50.67;22.73;;;;;;;;;;5071436;28;20078;-69
2022/01/11 05:37:47;;;;;;;47.72;21.40;;;;;;;;;;5073576;28;20398;-69
2022/01/11 05:40:13;;;;;;;43.30;21.30;;;;;;;;;;5071637;28;20072;-69
2022/01/11 05:42:41;;;;;;;48.38;21.60;;;;;;;;;;5071283;28;20426;-69
2022/01/11 05:45:08;;;;;;;44.00;21.70;;;;;;;;;;5088583;28;20040;-69
2022/01/11 05:47:34;;;;;;;44.58;20.80;;;;;;;;;;5073042;28;20036;-69
2022/01/11 05:50:03;;;;;;;47.03;21.65;;;;;;;;;;5087887;28;20541;-69
2022/01/11 05:52:29;;;;;;;47.28;22.77;;;;;;;;;;5088814;28;20105;-69
2022/01/11 05:54:55;;;;;;;51.20;22.27;;;;;;;;;;5072898;28;20090;-69
2022/01/11 05:57:21;;;;;;;42.75;21.13;;;;;;;;;;5071190;28;20475;-69
2022/01/11 05:59:48;;;;;;;57.22;25.25;;;;;;;;;;5071485;28;20477;-70
2022/01/11 06:02:14;;;;;;;62.33;25.50;;;;;;;;;;5088248;28;20127;-70
2022/01/11 06:04:40;;;;;;;61.58;25.98;;;;;;;;;;5070922;28;20094;-70
2022/01/11 06:07:07;;;;;;;58.05;25.25;;;;;;;;;;5071648;28;20043;-70
2022/01/11 06:09:33;;;;;;;61.70;25.75;;;;;;;;;;5071488;28;20119;-70
2022/01/11 06:11:59;;;;;;;53.08;22.83;;;;;;;;;;5070501;28;20047;-70
2022/01/11 06:14:25;;;;;;;52.00;24.45;;;;;;;;;;5071346;28;20506;-70
2022/01/11 06:16:51;;;;;;;51.47;23.02;;;;;;;;;;5072757;28;20078;-70
2022/01/11 06:19:17;;;;;;;49.35;20.60;;;;;;;;;;5070544;28;20459;-70
2022/01/11 06:21:43;;;;;;;47.17;22.17;;;;;;;;;;5072573;28;20432;-70
2022/01/11 06:24:09;;;;;;;43.80;21.08;;;;;;;;;;5072150;28;20067;-70
2022/01/11 06:26:35;;;;;;;44.28;20.45;;;;;;;;;;5059323;28;20061;-70
2022/01/11 06:29:02;;;;;;;45.22;21.73;;;;;;;;;;5050973;28;20036;-69
2022/01/11 06:31:30;;;;;;;49.17;21.85;;;;;;;;;;5050763;28;20124;-69
2022/01/11 06:33:56;;;;;;;45.58;20.42;;;;;;;;;;5050329;28;20110;-69
2022/01/11 06:36:22;;;;;;;43.33;20.42;;;;;;;;;;5050826;28;20036;-69
2022/01/11 06:38:48;;;;;;;50.47;21.80;;;;;;;;;;5050848;28;20683;-69
2022/01/11 06:41:14;;;;;;;43.67;20.38;;;;;;;;;;5066324;28;20131;-69
2022/01/11 06:43:41;;;;;;;43.15;20.05;;;;;;;;;;5051218;28;20044;-70
2022/01/11 06:46:07;;;;;;;42.80;20.25;;;;;;;;;;5055015;28;20040;-70
2022/01/11 06:48:34;;;;;;;41.72;19.40;;;;;;;;;;5068919;28;20037;-69
2022/01/11 06:51:00;;;;;;;44.30;20.75;;;;;;;;;;5070470;28;20044;-69
2022/01/11 06:53:28;;;;;;;42.15;20.25;;;;;;;;;;5069992;28;20390;-69
2022/01/11 06:55:54;;;;;;;41.25;19.08;;;;;;;;;;5069251;28;20451;-69
2022/01/11 06:58:21;;;;;;;44.70;20.27;;;;;;;;;;5070868;28;20047;-69
2022/01/11 07:00:48;;;;;;;37.47;18.08;;;;;;;;;;5071121;28;20041;-69
2022/01/11 07:03:18;;;;;;;38.42;19.05;;;;;;;;;;5070604;28;20500;-69
2022/01/11 07:05:45;;;;;;;40.33;18.27;;;;;;;;;;5069645;28;20048;-69
2022/01/11 07:08:11;;;;;;;38.70;18.55;;;;;;;;;;5070131;28;20075;-69
2022/01/11 07:10:38;;;;;;;37.00;17.35;;;;;;;;;;5064854;28;20089;-69
2022/01/11 07:13:04;;;;;;;45.55;18.48;;;;;;;;;;5069754;28;20036;-69
2022/01/11 07:15:31;;;;;;;38.20;18.17;;;;;;;;;;5069527;28;20383;-69
2022/01/11 07:17:57;;;;;;;37.95;17.33;;;;;;;;;;5052191;28;20098;-69
2022/01/11 07:20:23;;;;;;;36.92;17.75;;;;;;;;;;5069854;28;20048;-69
2022/01/11 07:22:49;;;;;;;39.70;16.42;;;;;;;;;;5068332;28;20048;-70
2022/01/11 07:25:15;;;;;;;42.53;17.67;;;;;;;;;;5068083;28;20534;-67
2022/01/11 07:27:42;;;;;;;37.20;17.45;;;;;;;;;;5070153;28;20055;-69
2022/01/11 07:30:09;;;;;;;39.50;17.50;;;;;;;;;;5063640;28;20055;-70
2022/01/11 07:32:37;;;;;;;36.65;16.67;;;;;;;;;;5068647;28;20166;-68
2022/01/11 07:35:04;;;;;;;39.35;16.63;;;;;;;;;;5069383;28;20043;-67
2022/01/11 07:37:30;;;;;;;31.85;15.52;;;;;;;;;;5070675;28;20475;-68
2022/01/11 07:39:56;;;;;;;34.80;16.38;;;;;;;;;;5069218;28;20041;-67
2022/01/11 07:42:22;;;;;;;40.25;16.95;;;;;;;;;;5068666;28;20032;-68
2022/01/11 07:44:51;;;;;;;37.63;17.50;;;;;;;;;;5069657;28;20456;-67
2022/01/11 07:47:18;;;;;;;35.95;16.90;;;;;;;;;;5067730;28;20041;-66
2022/01/11 07:49:44;;;;;;;39.25;15.73;;;;;;;;;;5069912;28;20063;-67
2022/01/11 07:52:10;;;;;;;35.40;16.00;;;;;;;;;;5069901;28;20515;-66
2022/01/11 07:54:36;;;;;;;31.70;15.95;;;;;;;;;;5069857;28;20048;-67
2022/01/11 07:57:02;;;;;;;34.28;16.00;;;;;;;;;;5074360;28;20036;-67
2022/01/11 07:59:28;;;;;;;34.85;15.52;;;;;;;;;;5073371;28;20396;-67
2022/01/11 08:01:54;;;;;;;29.85;14.75;;;;;;;;;;5073319;28;20619;-67
2022/01/11 08:04:20;;;;;;;34.75;16.45;;;;;;;;;;5074000;28;20402;-67
2022/01/11 08:06:46;;;;;;;28.95;15.68;;;;;;;;;;5055221;28;20037;-66
2022/01/11 08:09:15;;;;;;;29.63;15.90;;;;;;;;;;5073487;28;20437;-67
2022/01/11 08:11:41;;;;;;;34.55;15.25;;;;;;;;;;5073164;28;20036;-66
2022/01/11 08:14:07;;;;;;;27.08;14.13;;;;;;;;;;5073280;28;20070;-67
2022/01/11 08:16:33;;;;;;;32.42;16.08;;;;;;;;;;5073483;28;20036;-67
2022/01/11 08:18:59;;;;;;;27.73;15.05;;;;;;;;;;5072813;28;20032;-69
2022/01/11 08:21:25;;;;;;;33.40;15.40;;;;;;;;;;5073116;28;20115;-68
2022/01/11 08:23:51;;;;;;;29.23;15.18;;;;;;;;;;5072423;28;20097;-69
2022/01/11 08:26:18;;;;;;;28.83;14.32;;;;;;;;;;5073707;28;20048;-66
2022/01/11 08:28:44;;;;;;;28.27;13.75;;;;;;;;;;5054991;28;20372;-66
2022/01/11 08:31:10;;;;;;;27.67;13.48;;;;;;;;;;5071949;28;20055;-65
2022/01/11 08:33:38;;;;;;;22.63;12.45;;;;;;;;;;5073350;28;20041;-67
2022/01/11 08:36:06;;;;;;;24.42;12.55;;;;;;;;;;5072628;28;20055;-66
2022/01/11 08:38:32;;;;;;;28.38;13.60;;;;;;;;;;5072688;28;20049;-68
2022/01/11 08:40:58;;;;;;;26.67;13.77;;;;;;;;;;5070906;28;20045;-67
2022/01/11 08:43:24;;;;;;;25.98;12.57;;;;;;;;;;5072763;28;20044;-67
2022/01/11 08:45:50;;;;;;;27.80;14.00;;;;;;;;;;5072695;28;20025;-68
2022/01/11 08:48:16;;;;;;;29.25;15.23;;;;;;;;;;5072881;28;20040;-68
2022/01/11 08:50:42;;;;;;;24.25;12.27;;;;;;;;;;5072533;28;20093;-67
2022/01/11 08:53:09;;;;;;;27.08;13.30;;;;;;;;;;5071299;28;20055;-67
2022/01/11 08:55:35;;;;;;;22.92;13.80;;;;;;;;;;5072353;28;20048;-67
2022/01/11 08:58:01;;;;;;;29.70;12.75;;;;;;;;;;5073628;28;20123;-67
2022/01/11 09:00:27;;;;;;;26.80;12.88;;;;;;;;;;5070199;28;20109;-69
2022/01/11 09:02:54;;;;;;;26.55;13.60;;;;;;;;;;5070510;28;20037;-69
2022/01/11 09:05:21;;;;;;;28.17;13.65;;;;;;;;;;5071590;28;20515;-68
2022/01/11 09:07:49;;;;;;;26.88;14.38;;;;;;;;;;5071323;28;20044;-67
2022/01/11 09:10:15;;;;;;;27.45;14.10;;;;;;;;;;5072192;28;20438;-66
2022/01/11 09:12:41;;;;;;;25.75;13.48;;;;;;;;;;5071667;28;20075;-66
2022/01/11 09:15:08;;;;;;;27.83;13.52;;;;;;;;;;5072198;28;20093;-66
2022/01/11 09:17:35;;;;;;;32.17;14.30;;;;;;;;;;5071721;28;20599;-67
2022/01/11 09:20:01;;;;;;;30.85;13.80;;;;;;;;;;5071973;28;20036;-67
2022/01/11 09:22:27;;;;;;;29.73;13.88;;;;;;;;;;5072406;28;20040;-65
2022/01/11 09:24:55;;;;;;;28.85;15.20;;;;;;;;;;5070880;28;20047;-66
2022/01/11 09:27:21;;;;;;;34.40;15.18;;;;;;;;;;5072290;28;20036;-67
2022/01/11 09:29:47;;;;;;;30.90;14.57;;;;;;;;;;5072136;28;20530;-69
2022/01/11 09:32:14;;;;;;;33.60;15.18;;;;;;;;;;5071139;28;20146;-69
2022/01/11 09:34:41;;;;;;;27.83;14.32;;;;;;;;;;5071758;28;20123;-67
2022/01/11 09:37:08;;;;;;;33.67;15.85;;;;;;;;;;5072028;28;20049;-67
2022/01/11 09:39:35;;;;;;;30.48;15.35;;;;;;;;;;5069336;28;20036;-67
2022/01/11 09:42:01;;;;;;;31.02;15.45;;;;;;;;;;5071761;28;20477;-66
2022/01/11 09:44:27;;;;;;;32.03;15.07;;;;;;;;;;5070967;28;20091;-67
2022/01/11 09:46:54;;;;;;;31.88;15.10;;;;;;;;;;5071355;28;20036;-66
2022/01/11 09:49:20;;;;;;;27.55;15.32;;;;;;;;;;5071537;28;20040;-67
2022/01/11 09:51:46;;;;;;;30.25;14.85;;;;;;;;;;5071328;28;20049;-66
2022/01/11 09:54:12;;;;;;;27.25;14.90;;;;;;;;;;5071215;28;20151;-66
2022/01/11 09:56:39;;;;;;;30.05;15.48;;;;;;;;;;5070996;28;20672;-67
2022/01/11 09:59:05;;;;;;;31.00;15.30;;;;;;;;;;5070142;28;20565;-67
2022/01/11 10:01:32;;;;;;;30.55;14.40;;;;;;;;;;5070575;28;20036;-67
2022/01/11 10:04:03;;;;;;;29.23;14.48;;;;;;;;;;5071302;28;20482;-67
2022/01/11 10:06:30;;;;;;;33.63;16.40;;;;;;;;;;5070337;28;20052;-67
2022/01/11 10:09:16;;;;;;;30.52;15.20;;;;;;;;;;5070279;28;20391;-68
2022/01/11 10:11:43;;;;;;;28.73;14.88;;;;;;;;;;5056968;28;20048;-68
2022/01/11 10:14:17;;;;;;;26.02;14.38;;;;;;;;;;5069513;28;20186;-68
2022/01/11 10:16:44;;;;;;;27.55;15.52;;;;;;;;;;5070501;28;20491;-69
2022/01/11 10:19:26;;;;;;;28.95;15.13;;;;;;;;;;5068296;28;20044;-69
2022/01/11 10:21:54;;;;;;;25.70;14.60;;;;;;;;;;5069604;28;20040;-68
2022/01/11 10:24:22;;;;;;;29.80;16.00;;;;;;;;;;5069920;28;20040;-66
2022/01/11 10:26:48;;;;;;;28.42;15.20;;;;;;;;;;5071390;28;20502;-67
2022/01/11 10:29:24;;;;;;;28.08;14.82;;;;;;;;;;5070285;28;20051;-70
2022/01/11 10:31:51;;;;;;;29.85;15.05;;;;;;;;;;5069460;28;20101;-68
2022/01/11 10:34:25;;;;;;;32.28;15.60;;;;;;;;;;5069632;28;20093;-68
2022/01/11 10:36:51;;;;;;;31.65;15.95;;;;;;;;;;5068455;28;20688;-68
2022/01/11 10:39:34;;;;;;;29.90;15.00;;;;;;;;;;5068872;28;20044;-67
2022/01/11 10:42:01;;;;;;;29.95;13.52;;;;;;;;;;5097571;28;20449;-68
2022/01/11 10:44:42;;;;;;;29.13;15.02;;;;;;;;;;5067872;28;20094;-68
2022/01/11 10:47:09;;;;;;;31.27;15.18;;;;;;;;;;5070975;28;20037;-68
2022/01/11 10:49:36;;;;;;;27.70;14.88;;;;;;;;;;5068864;28;20037;-67
2022/01/11 10:52:15;;;;;;;32.20;15.25;;;;;;;;;;5070224;28;20084;-68
2022/01/11 10:54:44;;;;;;;28.55;15.45;;;;;;;;;;5070009;28;20051;-69
2022/01/11 10:57:14;;;;;;;29.30;15.38;;;;;;;;;;5069228;28;20048;-68
2022/01/11 10:59:41;;;;;;;32.75;15.35;;;;;;;;;;5068686;28;20475;-68
2022/01/11 11:02:12;;;;;;;32.45;15.25;;;;;;;;;;5070990;28;20029;-67
2022/01/11 11:04:38;;;;;;;28.97;14.97;;;;;;;;;;5097452;28;20055;-67
2022/01/11 11:07:11;;;;;;;31.25;15.73;;;;;;;;;;5069309;28;20677;-68
2022/01/11 11:09:47;;;;;;;30.13;14.95;;;;;;;;;;5065410;28;20044;-67
2022/01/11 11:12:14;;;;;;;31.30;15.90;;;;;;;;;;5070033;28;20072;-68
2022/01/11 11:14:51;;;;;;;30.73;15.30;;;;;;;;;;5068569;28;20047;-68
2022/01/11 11:17:37;;;;;;;32.45;14.93;;;;;;;;;;5069176;28;20109;-66
2022/01/11 11:20:07;;;;;;;28.45;14.02;;;;;;;;;;5069265;28;20414;-67
2022/01/11 11:22:33;;;;;;;28.98;14.57;;;;;;;;;;5068862;28;20141;-68
2022/01/11 11:24:59;;;;;;;29.15;14.43;;;;;;;;;;5067542;28;20051;-69
2022/01/11 11:27:28;;;;;;;26.83;14.70;;;;;;;;;;5067856;28;20052;-66
2022/01/11 11:29:54;;;;;;;29.75;14.90;;;;;;;;;;5068481;28;20032;-67
2022/01/11 11:32:21;;;;;;;24.92;13.13;;;;;;;;;;5069867;28;20375;-68
2022/01/11 11:34:51;;;;;;;31.13;15.30;;;;;;;;;;5069898;28;20041;-69
2022/01/11 11:37:38;;;;;;;26.63;13.48;;;;;;;;;;5069058;28;20040;-69
2022/01/11 11:40:07;;;;;;;26.30;13.40;;;;;;;;;;5069781;28;20752;-69
2022/01/11 11:42:33;;;;;;;29.60;14.38;;;;;;;;;;5070164;28;20041;-70
2022/01/11 11:45:00;;;;;;;26.40;13.32;;;;;;;;;;5066307;28;20060;-69
2022/01/11 11:47:35;;;;;;;27.30;14.10;;;;;;;;;;5070396;28;20131;-69
2022/01/11 11:50:02;;;;;;;28.48;14.20;;;;;;;;;;5069208;28;20097;-68
2022/01/11 11:52:28;;;;;;;27.13;13.50;;;;;;;;;;5068697;28;20655;-70
2022/01/11 11:55:02;;;;;;;25.85;13.07;;;;;;;;;;5069997;28;20573;-69
2022/01/11 11:57:32;;;;;;;30.13;13.43;;;;;;;;;;5069195;28;20072;-67
2022/01/11 12:00:11;;;;;;;29.10;14.13;;;;;;;;;;5068517;28;20048;-68
2022/01/11 12:02:40;;;;;;;26.63;12.73;;;;;;;;;;5068051;28;20048;-67
2022/01/11 12:05:09;;;;;;;22.58;12.73;;;;;;;;;;5068017;28;20048;-68
2022/01/11 12:07:40;;;;;;;28.27;13.23;;;;;;;;;;5068247;28;20375;-66
2022/01/11 12:10:09;;;;;;;27.30;13.35;;;;;;;;;;5067059;28;20072;-66
2022/01/11 12:12:50;;;;;;;27.60;13.07;;;;;;;;;;5070309;28;20532;-67
2022/01/11 12:15:22;;;;;;;25.17;11.90;;;;;;;;;;5068923;28;20050;-67
2022/01/11 12:18:00;;;;;;;24.60;13.00;;;;;;;;;;5070086;28;20044;-68
2022/01/11 12:20:46;;;;;;;27.00;13.48;;;;;;;;;;5069349;28;20046;-65
2022/01/11 12:23:23;;;;;;;26.35;12.77;;;;;;;;;;5069354;28;20038;-65
2022/01/11 12:25:54;;;;;;;25.92;13.00;;;;;;;;;;5090203;28;20497;-67
2022/01/11 12:28:21;;;;;;;29.30;12.48;;;;;;;;;;5068840;28;20048;-67
2022/01/11 12:30:48;;;;;;;24.80;12.60;;;;;;;;;;5068813;28;20059;-66
2022/01/11 12:33:18;;;;;;;28.58;13.43;;;;;;;;;;5067681;28;20097;-66
2022/01/11 12:36:01;;;;;;;25.40;12.90;;;;;;;;;;5051509;28;20113;-67
2022/01/11 12:38:29;;;;;;;23.77;12.70;;;;;;;;;;5069657;28;20055;-66
2022/01/11 12:40:55;;;;;;;26.98;12.20;;;;;;;;;;5069385;28;20093;-68
2022/01/11 12:43:38;;;;;;;27.33;11.93;;;;;;;;;;5071624;28;20049;-67
2022/01/11 12:46:06;;;;;;;25.23;12.07;;;;;;;;;;5071146;28;20432;-69
2022/01/11 12:48:45;;;;;;;25.73;12.27;;;;;;;;;;5072234;28;20079;-68
2022/01/11 12:51:12;;;;;;;24.50;12.35;;;;;;;;;;5067737;28;20758;-68
2022/01/11 12:53:39;;;;;;;25.70;11.68;;;;;;;;;;5072642;28;20112;-68
2022/01/11 12:56:05;;;;;;;27.50;12.30;;;;;;;;;;5071701;28;20053;-67
2022/01/11 12:58:31;;;;;;;27.35;11.90;;;;;;;;;;5053161;28;20044;-67
2022/01/11 13:00:57;;;;;;;25.23;12.85;;;;;;;;;;5072529;28;20398;-68
2022/01/11 13:03:23;;;;;;;25.83;11.63;;;;;;;;;;5072900;28;20051;-66
2022/01/11 13:05:54;;;;;;;23.42;11.60;;;;;;;;;;5071319;28;20040;-65
2022/01/11 13:08:29;;;;;;;26.85;12.55;;;;;;;;;;5071782;28;20064;-67
2022/01/11 13:10:55;;;;;;;27.23;12.23;;;;;;;;;;5070887;28;20152;-65
2022/01/11 13:13:26;;;;;;;25.85;11.95;;;;;;;;;;5071537;28;20048;-67
2022/01/11 13:15:52;;;;;;;28.05;12.38;;;;;;;;;;5072877;28;20048;-68
2022/01/11 13:18:22;;;;;;;23.88;11.80;;;;;;;;;;5066521;28;20124;-66
2022/01/11 13:21:02;;;;;;;24.33;11.73;;;;;;;;;;5072211;28;20063;-67
2022/01/11 13:23:34;;;;;;;29.13;11.48;;;;;;;;;;5071648;28;20032;-67
2022/01/11 13:26:01;;;;;;;26.42;12.38;;;;;;;;;;5066921;28;20063;-67
2022/01/11 13:28:36;;;;;;;26.25;12.50;;;;;;;;;;5071532;28;20044;-68
2022/01/11 13:31:05;;;;;;;27.23;11.90;;;;;;;;;;5069081;28;20387;-67
2022/01/11 13:33:32;;;;;;;25.35;12.13;;;;;;;;;;5063092;28;20051;-66
2022/01/11 13:36:08;;;;;;;23.42;12.32;;;;;;;;;;5071239;28;20040;-66
2022/01/11 13:38:35;;;;;;;25.83;11.73;;;;;;;;;;5071787;28;20052;-67
2022/01/11 13:41:07;;;;;;;29.30;12.70;;;;;;;;;;5072213;28;20048;-67
2022/01/11 13:43:37;;;;;;;24.35;12.10;;;;;;;;;;5070326;28;20045;-68
2022/01/11 13:46:03;;;;;;;26.40;12.32;;;;;;;;;;5070588;28;20032;-68
2022/01/11 13:48:35;;;;;;;32.88;13.98;;;;;;;;;;5071585;28;20095;-70
2022/01/11 13:51:01;;;;;;;28.95;13.43;;;;;;;;;;5070031;28;20048;-69
2022/01/11 13:53:30;;;;;;;27.67;12.52;;;;;;;;;;5069546;28;20114;-67
2022/01/11 13:56:08;;;;;;;28.73;13.35;;;;;;;;;;5072139;28;20048;-67
2022/01/11 13:58:38;;;;;;;28.52;12.43;;;;;;;;;;5069866;28;20418;-66
2022/01/11 14:01:04;;;;;;;28.25;12.75;;;;;;;;;;5070104;28;20083;-67
2022/01/11 14:03:31;;;;;;;26.38;12.32;;;;;;;;;;5071131;28;20428;-67
2022/01/11 14:05:58;;;;;;;27.73;12.45;;;;;;;;;;5069876;28;20047;-64
2022/01/11 14:08:28;;;;;;;28.05;12.20;;;;;;;;;;5071178;28;20032;-65
2022/01/11 14:11:05;;;;;;;31.20;13.32;;;;;;;;;;5067431;28;20118;-67
2022/01/11 14:13:31;;;;;;;33.17;13.48;;;;;;;;;;5057033;28;20060;-67
2022/01/11 14:15:57;;;;;;;30.75;13.43;;;;;;;;;;5070311;28;20040;-68
2022/01/11 14:18:27;;;;;;;32.80;13.65;;;;;;;;;;5069639;28;20059;-67
2022/01/11 14:21:10;;;;;;;29.83;13.65;;;;;;;;;;5033074;28;20473;-66
2022/01/11 14:23:36;;;;;;;;;;;;;;;;;;5066447;28;20120;-67
2022/01/11 14:26:03;;;;;;;33.78;14.80;;;;;;;;;;5071016;28;19967;-68